VAM Template | Jonatha

Virtual Airlines Manager! A new look to your va. By: Jonatha Silva




 METAR ET TAF INFORMATION
METAR FOR DAOO
ADDS - METARS form results

(1120 UTC 18 October 2019)
Data provider http://aviationweather.gov/metar/data/
 
METAR text: DAOO 181100Z 14004KT CAVOK 25/09 Q1018
Conditions at: DAOO (ORAN/ES SENIA , DZ) observed 1100 UTC 18 October 2019
Temperature: 25.0°C (77°F)
Dewpoint: 9.0°C (48°F) [RH = 36%]
Pressure (altimeter): 30.06 inches Hg (1018.0 mb)
Winds: from the SE (140 degrees) at 5 MPH (4 knots; 2.1 m/s)
Visibility: 6 or more miles (10+ km)
Ceiling: ceiling and visibility are OK
Clouds: unknown
Weather: no significant weather observed at this time

METAR text: DAOO 181030Z 16004KT CAVOK 25/11 Q1019
Conditions at: DAOO (ORAN/ES SENIA , DZ) observed 1030 UTC 18 October 2019
Temperature: 25.0°C (77°F)
Dewpoint: 11.0°C (52°F) [RH = 41%]
Pressure (altimeter): 30.09 inches Hg (1019.0 mb)
Winds: from the SSE (160 degrees) at 5 MPH (4 knots; 2.1 m/s)
Visibility: 6 or more miles (10+ km)
Ceiling: ceiling and visibility are OK
Clouds: unknown
Weather: no significant weather observed at this time

Forecast for: DAOO (ORAN/ES SENIA , DZ)
Text: TAF DAOO 180500Z 1806/1906 VRB02KT CAVOK
Forecast period: 0600 to 1100 UTC 18 October 2019
Forecast type: FROM: standard forecast or significant change
Winds: variable direction winds at 2 MPH (2 knots; 1.0 m/s)
Visibility: 6 or more miles 10+ km)
Ceiling: unknown
Clouds: missing
Weather: NSW  (no significant weather)
Text: BECMG 1811/1815 35010KT
Forecast period: 1100 to 1600 UTC 18 October 2019
Forecast type: BECOMING: Conditions expected to become as follows by 1500 UTC 18 October 2019
Winds: from the N (350 degrees) at 12 MPH (10 knots; 5.1 m/s)
Visibility: 6 or more miles 10+ km)
Ceiling: unknown
Clouds: missing
Weather: NSW  (no significant weather)
Text: BECMG 1816/1819 VRB02KT
Forecast period: 1600 UTC 18 October 2019 to 0600 UTC 19 October 2019
Forecast type: BECOMING: Conditions expected to become as follows by 1900 UTC 18 October 2019
Winds: variable direction winds at 2 MPH (2 knots; 1.0 m/s)
Visibility: 6 or more miles 10+ km)
Ceiling: unknown
Clouds: missing
Weather: NSW  (no significant weather)

 AÉROPORT DE AÉROPORT

 INFORMATIONS DE PISTE
Piste 07 Longueur de la piste 10039 ft Largeur de la piste 148 ft
Élévation de la piste 295 ft Seuil de la piste déplacés 0 ft Runway heading 67
Piste 25 Longueur de la piste 10039 ft Largeur de la piste 148 ft
Élévation de la piste 295 ft Seuil de la piste déplacés 196 ft Runway heading 247

 AÉROPORT FRÉQUENCES
Type APP Nom ORAN APP Féquence 128.2 MHZ
Type TWR Nom ORAN TWR Féquence 118.1 MHZ

 SIDA DE NAVIGATION
Type VOR-DME Nom Oran Féquence 114000 KHZ